Hovedside
METAR-TAF:

METAR-TAF

Lufthavner :

Arvidsjaur lufthavn

Arvidsjaur, Sverige

breddegrad: 65-35-25N, lengdegrad: 019-16-55E, høyde over havet: 379 m

Gjeldene værobservasjon

Denne rapporten ble laget for 7 minutter siden, klokken 13:20 UTC
Vind 12 kt fra Sør
Temperatur 3°C
Luftfuktighet 52%
Trykk 1017 hPa
Sikt 10 km eller mer
ingen skyer under 1500 m og ingen bygeskyer

METAR: ESNX 221320Z 18012KT CAVOK 03/M06 Q1017

Tid: 14:27 (13:27 UTC)

Varsel

Denne rapporten ble laget for 1 time og 57 minutter siden, klokken 11:30 UTC
Varsel gyldig fra 22. klokken 12 UTC til 22. klokken 21 UTC
Vind 10 kt fra Sørvest
Sikt 10 km eller mer
ingen skyer under 1500 m og ingen bygeskyer
Blir
fra 22. klokken 17 UTC til 22. klokken 19 UTC
Vind 15 kt fra Sør med vindkast opp mot 27 kt
Sikt: 1400 m
i en høyde av 1200 ft
snø

TAF: ESNX 221130Z 2212/2221 23010KT CAVOK BECMG 2217/2219 18015G27KT 1400 SN VV012

Værobservasjoner og værvarsel for over 4000 flyplasser (METAR- og TAF-rapporter).

Tilgjengelige stasjoner er representert av de røde og gule prikkene på kartet.

Hold musepekeren over prikken for å se navnet på stasjonen.

Klikk så for å se værobservasjoner og -varsler.

For å forandre kartet kan du klikke på den grønne knappen med svart kryss for å zoome inn, på den grønne knappen med strek for å zoome ut, eller på de grønne pilene for å se tilstøtende kart.


METAR-TAF: